Coal Hill, Arkansas
Current Conditions -  °F | °C
As of 9:53 AM on Sunday 25 Jan 2015 (Local Time) from KRUE Reporting Station
Clear Clear  
Wind Chill: 55°   Ceiling: Unl
Heat Index: 55°   Visibility: 10mi
Dew Point: 38°   Wind: 16mph
Humidity: 53%   Direction: 290°WNW
Pressure: 29.75"   Gusts: 22mph
Location:  35.44°N, 93.67°W
Report Text: KRUE 251553Z AUTO 29014G19KT 10SM CLR 13/03 A2975 RMK AO2 SLP072 T01280033
Loading
Personal Weather Stations






























Interactive Weather Map New forecast layout! Learn more

10-Day Weather Forecast

Advertisements
Track Severe Weather on mobile